sensor_id;sensor_type;location;lat;lon;timestamp;pressure;altitude;pressure_sealevel;temperature;humidity
77124;BME280;66079;47.646;19.130;2023-04-09T00:00:05;101069.31;;;4.63;85.29
77124;BME280;66079;47.646;19.130;2023-04-09T00:03:13;101069.53;;;4.69;84.87
77124;BME280;66079;47.646;19.130;2023-04-09T00:06:16;101061.16;;;4.67;84.97
77124;BME280;66079;47.646;19.130;2023-04-09T00:09:19;101079.47;;;4.82;84.61
77124;BME280;66079;47.646;19.130;2023-04-09T00:12:24;101087.13;;;4.74;84.93
77124;BME280;66079;47.646;19.130;2023-04-09T00:15:27;101058.78;;;4.56;84.86
77124;BME280;66079;47.646;19.130;2023-04-09T00:18:33;101059.44;;;4.58;85.14
77124;BME280;66079;47.646;19.130;2023-04-09T00:21:35;101084.09;;;4.78;84.99
77124;BME280;66079;47.646;19.130;2023-04-09T00:24:38;101087.19;;;4.82;84.90
77124;BME280;66079;47.646;19.130;2023-04-09T00:27:41;101054.47;;;4.74;84.45
77124;BME280;66079;47.646;19.130;2023-04-09T00:30:43;101082.41;;;4.69;84.95
77124;BME280;66079;47.646;19.130;2023-04-09T00:33:46;101084.09;;;4.78;84.63
77124;BME280;66079;47.646;19.130;2023-04-09T00:36:48;101086.59;;;4.70;84.83
77124;BME280;66079;47.646;19.130;2023-04-09T00:39:54;101065.41;;;4.59;85.02
77124;BME280;66079;47.646;19.130;2023-04-09T00:42:57;101067.69;;;4.62;84.84
77124;BME280;66079;47.646;19.130;2023-04-09T00:46:00;101077.25;;;4.69;84.87
77124;BME280;66079;47.646;19.130;2023-04-09T00:49:03;101062.16;;;4.57;85.22
77124;BME280;66079;47.646;19.130;2023-04-09T00:52:06;101063.28;;;4.54;85.15
77124;BME280;66079;47.646;19.130;2023-04-09T00:55:09;101075.53;;;4.60;85.18
77124;BME280;66079;47.646;19.130;2023-04-09T00:58:12;101077.91;;;4.54;85.95
77124;BME280;66079;47.646;19.130;2023-04-09T01:01:15;101074.78;;;4.50;85.67
77124;BME280;66079;47.646;19.130;2023-04-09T01:04:18;101077.34;;;4.60;85.61
77124;BME280;66079;47.646;19.130;2023-04-09T01:10:42;101082.72;;;4.66;85.45
77124;BME280;66079;47.646;19.130;2023-04-09T01:20:52;101076.66;;;4.58;85.02
77124;BME280;66079;47.646;19.130;2023-04-09T01:27:14;101066.19;;;4.42;85.86
77124;BME280;66079;47.646;19.130;2023-04-09T01:30:34;101059.19;;;4.34;86.13
77124;BME280;66079;47.646;19.130;2023-04-09T01:33:37;101076.38;;;4.34;85.99
77124;BME280;66079;47.646;19.130;2023-04-09T01:36:42;101051.81;;;4.22;86.24
77124;BME280;66079;47.646;19.130;2023-04-09T01:39:46;101082.72;;;4.39;86.41
77124;BME280;66079;47.646;19.130;2023-04-09T01:42:49;101077.19;;;4.34;86.22
77124;BME280;66079;47.646;19.130;2023-04-09T01:45:53;101067.06;;;4.33;86.11
77124;BME280;66079;47.646;19.130;2023-04-09T01:48:59;101078.41;;;4.40;86.26
77124;BME280;66079;47.646;19.130;2023-04-09T01:52:03;101075.44;;;4.35;86.28
77124;BME280;66079;47.646;19.130;2023-04-09T01:55:06;101070.69;;;4.40;86.38
77124;BME280;66079;47.646;19.130;2023-04-09T01:58:10;101060.78;;;4.35;86.55
77124;BME280;66079;47.646;19.130;2023-04-09T02:01:23;101083.78;;;4.46;86.29
77124;BME280;66079;47.646;19.130;2023-04-09T02:04:37;101076.06;;;4.46;86.22
77124;BME280;66079;47.646;19.130;2023-04-09T02:07:43;101072.22;;;4.50;86.04
77124;BME280;66079;47.646;19.130;2023-04-09T02:10:50;101080.75;;;4.51;85.92
77124;BME280;66079;47.646;19.130;2023-04-09T02:13:57;101089.31;;;4.51;86.17
77124;BME280;66079;47.646;19.130;2023-04-09T02:17:00;101074.00;;;4.50;86.13
77124;BME280;66079;47.646;19.130;2023-04-09T02:20:04;101084.78;;;4.53;86.02
77124;BME280;66079;47.646;19.130;2023-04-09T02:23:06;101042.78;;;4.35;85.99
77124;BME280;66079;47.646;19.130;2023-04-09T02:26:09;101071.44;;;4.50;85.86
77124;BME280;66079;47.646;19.130;2023-04-09T02:29:11;101057.75;;;4.49;85.85
77124;BME280;66079;47.646;19.130;2023-04-09T02:32:14;101058.34;;;4.43;85.98
77124;BME280;66079;47.646;19.130;2023-04-09T02:35:17;101056.13;;;4.48;86.15
77124;BME280;66079;47.646;19.130;2023-04-09T02:38:19;101055.09;;;4.41;85.86
77124;BME280;66079;47.646;19.130;2023-04-09T02:41:22;101054.84;;;4.35;86.31
77124;BME280;66079;47.646;19.130;2023-04-09T02:44:26;101066.47;;;4.39;86.74
77124;BME280;66079;47.646;19.130;2023-04-09T02:47:29;101070.53;;;4.41;86.98
77124;BME280;66079;47.646;19.130;2023-04-09T02:50:35;101070.09;;;4.46;86.65
77124;BME280;66079;47.646;19.130;2023-04-09T02:53:39;101068.84;;;4.50;86.54
77124;BME280;66079;47.646;19.130;2023-04-09T02:56:42;101075.31;;;4.54;86.36
77124;BME280;66079;47.646;19.130;2023-04-09T02:59:45;101057.88;;;4.48;86.11
77124;BME280;66079;47.646;19.130;2023-04-09T03:02:48;101070.09;;;4.63;86.03
77124;BME280;66079;47.646;19.130;2023-04-09T03:05:50;101067.69;;;4.62;86.05
77124;BME280;66079;47.646;19.130;2023-04-09T03:08:53;101060.41;;;4.57;85.35
77124;BME280;66079;47.646;19.130;2023-04-09T03:11:56;101059.28;;;4.42;86.17
77124;BME280;66079;47.646;19.130;2023-04-09T03:14:59;101071.81;;;4.55;85.92
77124;BME280;66079;47.646;19.130;2023-04-09T03:18:01;101072.06;;;4.52;86.03
77124;BME280;66079;47.646;19.130;2023-04-09T03:21:06;101070.47;;;4.51;86.12
77124;BME280;66079;47.646;19.130;2023-04-09T03:24:13;101083.94;;;4.62;85.94
77124;BME280;66079;47.646;19.130;2023-04-09T03:27:16;101072.25;;;4.68;85.82
77124;BME280;66079;47.646;19.130;2023-04-09T03:30:21;101059.72;;;4.55;85.70
77124;BME280;66079;47.646;19.130;2023-04-09T03:33:24;101069.47;;;4.61;85.90
77124;BME280;66079;47.646;19.130;2023-04-09T03:36:32;101050.16;;;4.48;86.02
77124;BME280;66079;47.646;19.130;2023-04-09T03:39:39;101062.97;;;4.57;85.87
77124;BME280;66079;47.646;19.130;2023-04-09T03:42:42;101072.19;;;4.60;85.74
77124;BME280;66079;47.646;19.130;2023-04-09T03:45:47;101075.84;;;4.57;86.25
77124;BME280;66079;47.646;19.130;2023-04-09T03:49:00;101060.91;;;4.61;85.59
77124;BME280;66079;47.646;19.130;2023-04-09T03:52:11;101056.22;;;4.56;85.26
77124;BME280;66079;47.646;19.130;2023-04-09T03:55:17;101071.75;;;4.64;85.57
77124;BME280;66079;47.646;19.130;2023-04-09T03:58:22;101076.44;;;4.69;85.13
77124;BME280;66079;47.646;19.130;2023-04-09T04:01:25;101067.75;;;4.70;84.71
77124;BME280;66079;47.646;19.130;2023-04-09T04:04:32;101078.22;;;4.86;84.52
77124;BME280;66079;47.646;19.130;2023-04-09T04:07:35;101075.91;;;4.83;84.45
77124;BME280;66079;47.646;19.130;2023-04-09T04:10:43;101080.06;;;4.76;84.45
77124;BME280;66079;47.646;19.130;2023-04-09T04:13:48;101073.06;;;4.68;85.28
77124;BME280;66079;47.646;19.130;2023-04-09T04:16:52;101073.94;;;4.59;85.25
77124;BME280;66079;47.646;19.130;2023-04-09T04:19:57;101082.56;;;4.68;85.10
77124;BME280;66079;47.646;19.130;2023-04-09T04:23:00;101072.59;;;4.55;85.25
77124;BME280;66079;47.646;19.130;2023-04-09T04:26:11;101070.16;;;4.54;85.40
77124;BME280;66079;47.646;19.130;2023-04-09T04:29:15;101083.56;;;4.57;85.16
77124;BME280;66079;47.646;19.130;2023-04-09T04:32:31;101078.41;;;4.57;85.44
77124;BME280;66079;47.646;19.130;2023-04-09T04:35:37;101087.56;;;4.69;85.62
77124;BME280;66079;47.646;19.130;2023-04-09T04:38:43;101078.72;;;4.72;84.88
77124;BME280;66079;47.646;19.130;2023-04-09T04:42:15;101098.25;;;4.92;84.64
77124;BME280;66079;47.646;19.130;2023-04-09T04:45:18;101079.84;;;4.87;84.49
77124;BME280;66079;47.646;19.130;2023-04-09T04:48:27;101086.97;;;4.93;84.52
77124;BME280;66079;47.646;19.130;2023-04-09T04:51:30;101090.13;;;4.87;84.07
77124;BME280;66079;47.646;19.130;2023-04-09T04:54:42;101090.81;;;4.89;84.47
77124;BME280;66079;47.646;19.130;2023-04-09T04:57:50;101087.41;;;5.06;84.07
77124;BME280;66079;47.646;19.130;2023-04-09T05:00:57;101097.34;;;5.18;83.46
77124;BME280;66079;47.646;19.130;2023-04-09T05:04:02;101105.16;;;5.26;83.68
77124;BME280;66079;47.646;19.130;2023-04-09T05:07:08;101105.75;;;5.20;83.62
77124;BME280;66079;47.646;19.130;2023-04-09T05:10:18;101108.44;;;5.19;83.89
77124;BME280;66079;47.646;19.130;2023-04-09T05:13:22;101093.97;;;5.18;83.42
77124;BME280;66079;47.646;19.130;2023-04-09T05:16:26;101088.94;;;5.16;83.51
77124;BME280;66079;47.646;19.130;2023-04-09T05:19:36;101108.09;;;5.31;83.31
77124;BME280;66079;47.646;19.130;2023-04-09T05:22:39;101112.84;;;5.44;83.16
77124;BME280;66079;47.646;19.130;2023-04-09T05:25:42;101122.06;;;5.47;83.08
77124;BME280;66079;47.646;19.130;2023-04-09T05:28:54;101122.13;;;5.55;83.02
77124;BME280;66079;47.646;19.130;2023-04-09T05:31:58;101125.09;;;5.68;82.43
77124;BME280;66079;47.646;19.130;2023-04-09T05:35:08;101133.22;;;5.73;81.87
77124;BME280;66079;47.646;19.130;2023-04-09T05:38:14;101120.91;;;5.67;81.80
77124;BME280;66079;47.646;19.130;2023-04-09T05:41:19;101119.94;;;5.68;81.71
77124;BME280;66079;47.646;19.130;2023-04-09T05:44:42;101135.00;;;5.80;81.47
77124;BME280;66079;47.646;19.130;2023-04-09T05:47:50;101139.91;;;5.83;80.92
77124;BME280;66079;47.646;19.130;2023-04-09T05:50:56;101107.56;;;5.71;80.87
77124;BME280;66079;47.646;19.130;2023-04-09T05:54:02;101132.00;;;5.85;81.24
77124;BME280;66079;47.646;19.130;2023-04-09T05:57:08;101127.34;;;5.88;80.14
77124;BME280;66079;47.646;19.130;2023-04-09T06:00:14;101132.47;;;6.06;80.21
77124;BME280;66079;47.646;19.130;2023-04-09T06:03:21;101147.72;;;6.25;79.69
77124;BME280;66079;47.646;19.130;2023-04-09T06:06:23;101153.84;;;6.24;79.81
77124;BME280;66079;47.646;19.130;2023-04-09T06:09:26;101139.34;;;6.31;79.71
77124;BME280;66079;47.646;19.130;2023-04-09T06:12:33;101137.72;;;6.22;79.17
77124;BME280;66079;47.646;19.130;2023-04-09T06:15:37;101151.72;;;6.19;79.54
77124;BME280;66079;47.646;19.130;2023-04-09T06:18:40;101153.41;;;6.36;78.89
77124;BME280;66079;47.646;19.130;2023-04-09T06:21:43;101153.94;;;6.48;78.69
77124;BME280;66079;47.646;19.130;2023-04-09T06:24:46;101150.59;;;6.63;78.03
77124;BME280;66079;47.646;19.130;2023-04-09T06:27:49;101127.34;;;6.55;78.14
77124;BME280;66079;47.646;19.130;2023-04-09T06:30:51;101147.94;;;6.81;77.68
77124;BME280;66079;47.646;19.130;2023-04-09T06:33:56;101138.69;;;6.78;77.23
77124;BME280;66079;47.646;19.130;2023-04-09T06:36:58;101146.81;;;6.92;76.46
77124;BME280;66079;47.646;19.130;2023-04-09T06:40:01;101139.06;;;6.92;76.34
77124;BME280;66079;47.646;19.130;2023-04-09T06:43:05;101146.31;;;6.88;77.37
77124;BME280;66079;47.646;19.130;2023-04-09T06:46:24;101156.03;;;7.02;76.22
77124;BME280;66079;47.646;19.130;2023-04-09T06:49:27;101141.13;;;6.88;75.62
77124;BME280;66079;47.646;19.130;2023-04-09T06:52:30;101145.06;;;7.00;74.47
77124;BME280;66079;47.646;19.130;2023-04-09T06:55:32;101150.53;;;6.89;74.55
77124;BME280;66079;47.646;19.130;2023-04-09T06:58:35;101146.03;;;6.99;74.70
77124;BME280;66079;47.646;19.130;2023-04-09T07:01:38;101144.06;;;7.01;74.13
77124;BME280;66079;47.646;19.130;2023-04-09T07:04:41;101162.22;;;7.09;73.33
77124;BME280;66079;47.646;19.130;2023-04-09T07:07:43;101166.72;;;7.15;73.70
77124;BME280;66079;47.646;19.130;2023-04-09T07:10:46;101161.56;;;7.31;73.54
77124;BME280;66079;47.646;19.130;2023-04-09T07:13:49;101158.31;;;7.05;72.68
77124;BME280;66079;47.646;19.130;2023-04-09T07:16:52;101162.66;;;6.97;74.39
77124;BME280;66079;47.646;19.130;2023-04-09T07:19:55;101178.00;;;7.06;74.39
77124;BME280;66079;47.646;19.130;2023-04-09T07:22:58;101177.56;;;7.11;75.23
77124;BME280;66079;47.646;19.130;2023-04-09T07:26:04;101178.84;;;7.15;75.04
77124;BME280;66079;47.646;19.130;2023-04-09T07:29:06;101178.69;;;7.16;74.39
77124;BME280;66079;47.646;19.130;2023-04-09T07:32:09;101156.72;;;7.12;74.34
77124;BME280;66079;47.646;19.130;2023-04-09T07:35:12;101174.66;;;7.30;73.67
77124;BME280;66079;47.646;19.130;2023-04-09T07:38:14;101161.72;;;7.14;74.59
77124;BME280;66079;47.646;19.130;2023-04-09T07:41:17;101185.66;;;7.40;74.09
77124;BME280;66079;47.646;19.130;2023-04-09T07:44:20;101172.56;;;7.33;72.22
77124;BME280;66079;47.646;19.130;2023-04-09T07:47:23;101171.78;;;7.57;72.29
77124;BME280;66079;47.646;19.130;2023-04-09T07:50:25;101181.28;;;7.80;71.21
77124;BME280;66079;47.646;19.130;2023-04-09T07:53:28;101172.56;;;7.49;71.34
77124;BME280;66079;47.646;19.130;2023-04-09T07:56:30;101181.47;;;7.71;71.32
77124;BME280;66079;47.646;19.130;2023-04-09T07:59:34;101190.38;;;7.76;71.42
77124;BME280;66079;47.646;19.130;2023-04-09T08:02:37;101192.59;;;7.95;70.76
77124;BME280;66079;47.646;19.130;2023-04-09T08:05:40;101196.13;;;8.10;70.19
77124;BME280;66079;47.646;19.130;2023-04-09T08:08:43;101178.97;;;8.09;70.08
77124;BME280;66079;47.646;19.130;2023-04-09T08:11:46;101196.78;;;8.29;69.50
77124;BME280;66079;47.646;19.130;2023-04-09T08:14:49;101185.91;;;8.33;68.68
77124;BME280;66079;47.646;19.130;2023-04-09T08:17:52;101198.97;;;8.48;68.58
77124;BME280;66079;47.646;19.130;2023-04-09T08:20:55;101202.13;;;8.27;68.67
77124;BME280;66079;47.646;19.130;2023-04-09T08:23:58;101194.13;;;8.45;68.57
77124;BME280;66079;47.646;19.130;2023-04-09T08:27:05;101195.19;;;8.66;67.12
77124;BME280;66079;47.646;19.130;2023-04-09T08:30:08;101191.13;;;8.72;67.20
77124;BME280;66079;47.646;19.130;2023-04-09T08:33:12;101202.38;;;8.48;67.54
77124;BME280;66079;47.646;19.130;2023-04-09T08:36:15;101198.53;;;8.75;67.69
77124;BME280;66079;47.646;19.130;2023-04-09T08:39:18;101195.88;;;9.13;65.73
77124;BME280;66079;47.646;19.130;2023-04-09T08:42:23;101201.44;;;9.33;64.56
77124;BME280;66079;47.646;19.130;2023-04-09T08:45:26;101193.13;;;9.15;64.85
77124;BME280;66079;47.646;19.130;2023-04-09T08:48:28;101214.47;;;9.48;64.68
77124;BME280;66079;47.646;19.130;2023-04-09T08:51:31;101221.00;;;9.43;64.24
77124;BME280;66079;47.646;19.130;2023-04-09T08:54:34;101205.44;;;9.43;65.22
77124;BME280;66079;47.646;19.130;2023-04-09T08:57:37;101212.31;;;9.51;64.18
77124;BME280;66079;47.646;19.130;2023-04-09T09:00:40;101216.66;;;9.59;63.36
77124;BME280;66079;47.646;19.130;2023-04-09T09:04:06;101213.63;;;9.92;62.77
77124;BME280;66079;47.646;19.130;2023-04-09T09:07:09;101220.59;;;10.14;62.46
77124;BME280;66079;47.646;19.130;2023-04-09T09:10:11;101220.22;;;10.46;60.38
77124;BME280;66079;47.646;19.130;2023-04-09T09:13:22;101218.28;;;10.99;59.41
77124;BME280;66079;47.646;19.130;2023-04-09T09:16:25;101238.00;;;11.08;58.18
77124;BME280;66079;47.646;19.130;2023-04-09T09:19:30;101231.63;;;10.60;58.44
77124;BME280;66079;47.646;19.130;2023-04-09T09:22:48;101228.91;;;10.68;59.12
77124;BME280;66079;47.646;19.130;2023-04-09T09:25:56;101232.50;;;10.82;58.91
77124;BME280;66079;47.646;19.130;2023-04-09T09:29:02;101227.66;;;10.49;59.53
77124;BME280;66079;47.646;19.130;2023-04-09T09:32:12;101232.69;;;10.80;58.29
77124;BME280;66079;47.646;19.130;2023-04-09T09:35:15;101225.66;;;10.95;58.37
77124;BME280;66079;47.646;19.130;2023-04-09T09:38:17;101225.75;;;11.02;57.59
77124;BME280;66079;47.646;19.130;2023-04-09T09:41:21;101220.59;;;11.65;57.54
77124;BME280;66079;47.646;19.130;2023-04-09T09:44:32;101218.72;;;11.59;56.88
77124;BME280;66079;47.646;19.130;2023-04-09T09:47:35;101227.00;;;11.48;55.47
77124;BME280;66079;47.646;19.130;2023-04-09T09:50:39;101211.69;;;11.59;55.96
77124;BME280;66079;47.646;19.130;2023-04-09T09:53:46;101212.38;;;11.47;56.36
77124;BME280;66079;47.646;19.130;2023-04-09T09:56:53;101215.72;;;11.62;55.41
77124;BME280;66079;47.646;19.130;2023-04-09T10:00:01;101216.94;;;12.08;54.44
77124;BME280;66079;47.646;19.130;2023-04-09T10:03:13;101212.94;;;11.42;57.80
77124;BME280;66079;47.646;19.130;2023-04-09T10:06:20;101207.66;;;11.57;55.33
77124;BME280;66079;47.646;19.130;2023-04-09T10:09:25;101215.63;;;11.70;56.65
77124;BME280;66079;47.646;19.130;2023-04-09T10:12:29;101198.44;;;11.75;56.71
77124;BME280;66079;47.646;19.130;2023-04-09T10:15:31;101213.13;;;11.83;54.92
77124;BME280;66079;47.646;19.130;2023-04-09T10:18:35;101208.47;;;11.15;56.38
77124;BME280;66079;47.646;19.130;2023-04-09T10:21:41;101210.78;;;11.67;54.66
77124;BME280;66079;47.646;19.130;2023-04-09T10:24:46;101202.78;;;11.47;56.00
77124;BME280;66079;47.646;19.130;2023-04-09T10:27:59;101202.66;;;11.13;56.26
77124;BME280;66079;47.646;19.130;2023-04-09T10:31:04;101202.72;;;10.84;56.26
77124;BME280;66079;47.646;19.130;2023-04-09T10:34:08;101197.06;;;10.95;59.18
77124;BME280;66079;47.646;19.130;2023-04-09T10:37:23;101195.56;;;11.07;56.72
77124;BME280;66079;47.646;19.130;2023-04-09T10:40:27;101215.03;;;11.53;56.78
77124;BME280;66079;47.646;19.130;2023-04-09T10:43:30;101218.91;;;11.78;55.26
77124;BME280;66079;47.646;19.130;2023-04-09T10:46:34;101211.56;;;11.88;54.06
77124;BME280;66079;47.646;19.130;2023-04-09T10:49:42;101205.16;;;11.91;53.69
77124;BME280;66079;47.646;19.130;2023-04-09T10:52:45;101212.13;;;11.63;55.17
77124;BME280;66079;47.646;19.130;2023-04-09T10:55:49;101200.97;;;11.27;56.91
77124;BME280;66079;47.646;19.130;2023-04-09T10:58:52;101214.91;;;10.98;57.81
77124;BME280;66079;47.646;19.130;2023-04-09T11:01:55;101198.94;;;10.87;58.12
77124;BME280;66079;47.646;19.130;2023-04-09T11:08:05;101217.88;;;10.81;56.36
77124;BME280;66079;47.646;19.130;2023-04-09T11:11:08;101195.44;;;11.15;55.19
77124;BME280;66079;47.646;19.130;2023-04-09T11:14:18;101191.13;;;11.22;55.87
77124;BME280;66079;47.646;19.130;2023-04-09T11:17:21;101200.00;;;11.49;54.98
77124;BME280;66079;47.646;19.130;2023-04-09T11:20:25;101197.94;;;11.86;54.53
77124;BME280;66079;47.646;19.130;2023-04-09T11:23:28;101204.84;;;12.28;53.18
77124;BME280;66079;47.646;19.130;2023-04-09T11:26:35;101192.91;;;13.00;50.74
77124;BME280;66079;47.646;19.130;2023-04-09T11:29:38;101190.59;;;13.25;50.50
77124;BME280;66079;47.646;19.130;2023-04-09T11:32:41;101201.94;;;12.51;50.96
77124;BME280;66079;47.646;19.130;2023-04-09T11:35:44;101183.94;;;12.62;51.02
77124;BME280;66079;47.646;19.130;2023-04-09T11:38:47;101195.63;;;13.66;50.02
77124;BME280;66079;47.646;19.130;2023-04-09T11:41:51;101182.16;;;13.36;49.04
77124;BME280;66079;47.646;19.130;2023-04-09T11:44:54;101193.66;;;12.94;51.40
77124;BME280;66079;47.646;19.130;2023-04-09T11:47:57;101191.31;;;13.06;49.76
77124;BME280;66079;47.646;19.130;2023-04-09T11:51:00;101182.25;;;12.95;50.02
77124;BME280;66079;47.646;19.130;2023-04-09T11:54:06;101186.53;;;14.01;46.97
77124;BME280;66079;47.646;19.130;2023-04-09T11:57:09;101171.44;;;15.48;44.12
77124;BME280;66079;47.646;19.130;2023-04-09T12:00:16;101178.06;;;15.75;42.69
77124;BME280;66079;47.646;19.130;2023-04-09T12:03:26;101182.06;;;15.22;42.59
77124;BME280;66079;47.646;19.130;2023-04-09T12:06:30;101179.28;;;15.17;42.73
77124;BME280;66079;47.646;19.130;2023-04-09T12:09:33;101181.59;;;14.56;43.22
77124;BME280;66079;47.646;19.130;2023-04-09T12:12:43;101196.59;;;14.10;43.99
77124;BME280;66079;47.646;19.130;2023-04-09T12:15:48;101185.44;;;14.98;44.02
77124;BME280;66079;47.646;19.130;2023-04-09T12:18:51;101182.34;;;14.70;43.65
77124;BME280;66079;47.646;19.130;2023-04-09T12:21:57;101177.69;;;16.15;40.47
77124;BME280;66079;47.646;19.130;2023-04-09T12:24:59;101173.03;;;16.71;39.34
77124;BME280;66079;47.646;19.130;2023-04-09T12:28:03;101176.41;;;17.19;38.45
77124;BME280;66079;47.646;19.130;2023-04-09T12:31:09;101169.88;;;17.74;36.66
77124;BME280;66079;47.646;19.130;2023-04-09T12:34:12;101163.53;;;18.33;34.96
77124;BME280;66079;47.646;19.130;2023-04-09T12:37:15;101169.28;;;18.07;37.05
77124;BME280;66079;47.646;19.130;2023-04-09T12:40:19;101164.50;;;19.28;33.24
77124;BME280;66079;47.646;19.130;2023-04-09T12:43:22;101161.94;;;19.00;33.34
77124;BME280;66079;47.646;19.130;2023-04-09T12:46:24;101162.09;;;17.79;35.70
77124;BME280;66079;47.646;19.130;2023-04-09T12:49:28;101171.00;;;19.20;32.41
77124;BME280;66079;47.646;19.130;2023-04-09T12:52:31;101159.59;;;20.62;30.36
77124;BME280;66079;47.646;19.130;2023-04-09T12:55:34;101152.66;;;19.75;32.16
77124;BME280;66079;47.646;19.130;2023-04-09T12:58:36;101159.28;;;19.61;32.04
77124;BME280;66079;47.646;19.130;2023-04-09T13:01:39;101158.94;;;20.98;29.96
77124;BME280;66079;47.646;19.130;2023-04-09T13:04:44;101146.38;;;21.79;28.55
77124;BME280;66079;47.646;19.130;2023-04-09T13:07:47;101148.91;;;23.07;26.67
77124;BME280;66079;47.646;19.130;2023-04-09T13:10:49;101145.97;;;23.89;24.97
77124;BME280;66079;47.646;19.130;2023-04-09T13:13:52;101136.63;;;24.02;24.47
77124;BME280;66079;47.646;19.130;2023-04-09T13:16:55;101146.66;;;25.12;23.02
77124;BME280;66079;47.646;19.130;2023-04-09T13:19:58;101137.16;;;25.01;23.28
77124;BME280;66079;47.646;19.130;2023-04-09T13:23:01;101120.81;;;23.01;25.48
77124;BME280;66079;47.646;19.130;2023-04-09T13:26:04;101132.69;;;22.69;26.41
77124;BME280;66079;47.646;19.130;2023-04-09T13:29:06;101134.59;;;23.38;25.51
77124;BME280;66079;47.646;19.130;2023-04-09T13:32:10;101141.72;;;25.63;22.08
77124;BME280;66079;47.646;19.130;2023-04-09T13:35:12;101135.88;;;26.32;20.80
77124;BME280;66079;47.646;19.130;2023-04-09T13:38:15;101137.75;;;26.87;20.76
77124;BME280;66079;47.646;19.130;2023-04-09T13:41:17;101126.75;;;28.47;19.90
77124;BME280;66079;47.646;19.130;2023-04-09T13:44:20;101121.94;;;26.16;20.66
77124;BME280;66079;47.646;19.130;2023-04-09T13:47:23;101113.53;;;26.46;20.75
77124;BME280;66079;47.646;19.130;2023-04-09T13:50:25;101103.28;;;26.35;21.19
77124;BME280;66079;47.646;19.130;2023-04-09T13:53:28;101125.91;;;26.18;21.25
77124;BME280;66079;47.646;19.130;2023-04-09T13:56:31;101123.44;;;22.81;24.53
77124;BME280;66079;47.646;19.130;2023-04-09T13:59:33;101103.44;;;20.50;28.15
77124;BME280;66079;47.646;19.130;2023-04-09T14:02:36;101094.16;;;19.45;29.50
77124;BME280;66079;47.646;19.130;2023-04-09T14:05:38;101106.63;;;19.00;31.41
77124;BME280;66079;47.646;19.130;2023-04-09T14:08:41;101102.78;;;19.07;30.79
77124;BME280;66079;47.646;19.130;2023-04-09T14:11:44;101096.34;;;18.42;31.06
77124;BME280;66079;47.646;19.130;2023-04-09T14:14:46;101093.25;;;17.36;32.69
77124;BME280;66079;47.646;19.130;2023-04-09T14:17:50;101093.72;;;16.80;34.85
77124;BME280;66079;47.646;19.130;2023-04-09T14:20:53;101096.50;;;16.97;34.97
77124;BME280;66079;47.646;19.130;2023-04-09T14:23:55;101093.94;;;16.31;35.32
77124;BME280;66079;47.646;19.130;2023-04-09T14:26:57;101094.72;;;16.02;37.10
77124;BME280;66079;47.646;19.130;2023-04-09T14:30:00;101089.00;;;15.20;38.65
77124;BME280;66079;47.646;19.130;2023-04-09T14:33:04;101091.56;;;15.26;39.05
77124;BME280;66079;47.646;19.130;2023-04-09T14:36:07;101087.66;;;15.11;39.57
77124;BME280;66079;47.646;19.130;2023-04-09T14:39:10;101076.66;;;15.02;39.28
77124;BME280;66079;47.646;19.130;2023-04-09T14:42:13;101086.94;;;14.73;40.11
77124;BME280;66079;47.646;19.130;2023-04-09T14:45:15;101085.94;;;14.67;40.44
77124;BME280;66079;47.646;19.130;2023-04-09T14:48:18;101076.59;;;14.53;40.78
77124;BME280;66079;47.646;19.130;2023-04-09T14:51:21;101093.63;;;14.11;42.44
77124;BME280;66079;47.646;19.130;2023-04-09T14:54:24;101080.88;;;13.71;42.69
77124;BME280;66079;47.646;19.130;2023-04-09T14:57:27;101094.53;;;13.73;43.86
77124;BME280;66079;47.646;19.130;2023-04-09T15:00:30;101085.50;;;13.56;43.86
77124;BME280;66079;47.646;19.130;2023-04-09T15:03:33;101091.94;;;13.60;43.39
77124;BME280;66079;47.646;19.130;2023-04-09T15:06:36;101082.72;;;13.24;45.23
77124;BME280;66079;47.646;19.130;2023-04-09T15:09:39;101088.94;;;13.17;44.84
77124;BME280;66079;47.646;19.130;2023-04-09T15:12:41;101088.94;;;13.30;44.16
77124;BME280;66079;47.646;19.130;2023-04-09T15:15:44;101080.72;;;13.40;43.78
77124;BME280;66079;47.646;19.130;2023-04-09T15:18:47;101088.56;;;13.20;44.66
77124;BME280;66079;47.646;19.130;2023-04-09T15:21:52;101066.44;;;13.09;44.32
77124;BME280;66079;47.646;19.130;2023-04-09T15:24:55;101087.94;;;13.44;44.21
77124;BME280;66079;47.646;19.130;2023-04-09T15:27:58;101070.06;;;13.28;45.46
77124;BME280;66079;47.646;19.130;2023-04-09T15:31:01;101088.16;;;13.10;45.13
77124;BME280;66079;47.646;19.130;2023-04-09T15:34:03;101067.22;;;12.84;46.69
77124;BME280;66079;47.646;19.130;2023-04-09T15:37:06;101079.44;;;12.77;48.63
77124;BME280;66079;47.646;19.130;2023-04-09T15:40:09;101080.81;;;12.66;47.81
77124;BME280;66079;47.646;19.130;2023-04-09T15:43:12;101075.47;;;12.27;48.88
77124;BME280;66079;47.646;19.130;2023-04-09T15:46:15;101083.47;;;12.19;50.16
77124;BME280;66079;47.646;19.130;2023-04-09T15:49:20;101078.38;;;12.04;50.27
77124;BME280;66079;47.646;19.130;2023-04-09T15:52:22;101076.78;;;12.03;50.27
77124;BME280;66079;47.646;19.130;2023-04-09T15:55:25;101075.78;;;12.04;50.25
77124;BME280;66079;47.646;19.130;2023-04-09T15:58:27;101085.78;;;12.01;50.70
77124;BME280;66079;47.646;19.130;2023-04-09T16:01:30;101073.44;;;11.75;51.35
77124;BME280;66079;47.646;19.130;2023-04-09T16:04:33;101067.81;;;11.72;51.77
77124;BME280;66079;47.646;19.130;2023-04-09T16:07:36;101085.69;;;11.81;51.52
77124;BME280;66079;47.646;19.130;2023-04-09T16:10:39;101053.72;;;11.66;52.16
77124;BME280;66079;47.646;19.130;2023-04-09T16:13:42;101066.41;;;11.48;52.76